x

Galveston,tx - 22 Nm East Of Galveston, Tx (42035) Wave Buoy

10:50am - Fri 4th Sep 2015 All times are CDT. -5 hours from GMT.

  • Sig Wave height 2.3ft
  • Swell Direction
  • Peak Period 4s
  • Average Period 4s
  • Wind
    7mph, 9mph gusts
  • Sea Temp 85°f
  • Air Temp 85°f
  • Sea Pressure 1015.2mb
  • Galveston,tx -  22 Nm East Of Galveston, Tx
  • Galveston,tx -  22 Nm East Of Galveston, Tx

More Historic Weather Station data

Upgrade to MSW Pro to gain access to the past 30 days of data for over 8000 Wavebouys and Weather Stations around the globe.

Join Pro

Comparision Forecast

View Surf forecast
   
Fri 09/04 10:50am 2.5ft 4s 4s 7 9 mph 1015.2mb 85f 85f
9:50am 2.5ft 6s 4s 7 9 mph 1014.6mb 85f 84f
8:50am 2.5ft 6s 4s 9 11 mph 1014.4mb 85f 83f
7:50am 2.5ft 6s 4s 9 11 mph 1013.9mb 85f 84f
6:50am 2.5ft 7s 4s 9 11 mph 1013.2mb 85f 84f
5:50am 2.5ft 6s 4s 9 13 mph 1013mb 85f 84f
4:50am 2.5ft 6s 4s 13 16 mph 1012.6mb 85f 84f
3:50am 2.5ft 6s 4s 13 16 mph 1012.4mb 85f 83f
2:50am 2.5ft 6s 4s 13 16 mph 1012.3mb 85f 83f
1:50am 2.5ft 7s 4s 11 16 mph 1012.4mb 85f 83f
12:50am 2.5ft 6s 4s 13 16 mph 1012.2mb 86f 83f
Thu 09/03 11:50pm 2.5ft 6s 4s 13 16 mph 1012.4mb 86f 84f
10:50pm 2.5ft 7s 4s 13 16 mph 1012.6mb 86f 84f
9:50pm 2.5ft 5s 4s 11 16 mph 1012.4mb 86f 84f
8:50pm 2ft 7s 4s 11 13 mph 1011.5mb 86f 83f
7:50pm 2ft 5s 4s 11 16 mph 1011.3mb 86f 83f
6:50pm 2ft 4s 4s 9 13 mph 1011.4mb 86f 84f
5:50pm 2ft 5s 4s 11 13 mph 1011.8mb 86f 83f
4:50pm 2ft 5s 4s 11 13 mph 1012.4mb 86f 83f
3:50pm 2ft 5s 4s 9 11 mph 1012.8mb 86f 83f
2:50pm 2ft 5s 4s 9 11 mph 1013.3mb 85f 83f
1:50pm 2ft 5s 4s 11 13 mph 1013.8mb 85f 82f
12:50pm 2ft 4s 4s 11 13 mph 1014.5mb 85f 81f
11:50am 2ft 5s 4s 16 20 mph 1014.8mb 85f 82f
10:50am 2ft 5s 4s 7 9 mph 1015mb 85f 82f
9:50am 2.5ft 5s 4s 2 4 mph 1014.6mb 86f 84f
8:50am 2ft 5s 4s 4
mph
1014.2mb 85f 83f
7:50am 2.5ft 5s 4s 4 7 mph 1014mb 85f 83f
6:50am 2ft 5s 4s 9 11 mph 1013.3mb 85f 82f
5:50am 2.5ft 5s 4s 9 11 mph 1013.3mb 85f 82f
4:50am 2.5ft 5s 4s 11 13 mph 1013.4mb 85f 83f
3:50am 2.5ft 5s 4s 9 11 mph 1013.5mb 85f 83f
2:50am 2.5ft 5s 4s 7 9 mph 1013.5mb 85f 82f
1:50am 2.5ft 5s 4s 9 11 mph 1013.6mb 85f 82f
12:50am 2.5ft 5s 4s 11 16 mph 1013.8mb 85f 82f
Wed 09/02 11:50pm 2.5ft 5s 4s 11 13 mph 1014mb 85f 82f
10:50pm 2.5ft 5s 4s 11 13 mph 1014.1mb 85f 82f
9:50pm 2.5ft 5s 4s 9 11 mph 1014mb 85f 82f
8:50pm 3ft 5s 4s 11 13 mph 1013.7mb 85f 82f
7:50pm 3ft 5s 4s 13 16 mph 1013.3mb 85f 82f
6:50pm 3ft 5s 4s 16 20 mph 1013.7mb 85f 83f
5:50pm 3ft 5s 4s 18 20 mph 1013.8mb 85f 83f
4:50pm 2.5ft 4s 4s 16 20 mph 1014mb 85f 83f
3:50pm 3ft 5s 4s 16 18 mph 1015mb 85f 82f
2:50pm 3ft 5s 4s 16 18 mph 1015.8mb 85f 81f
1:50pm 3ft 6s 4s 18 20 mph 1016.6mb 85f 81f
12:50pm 3ft 6s 4s 13 18 mph 1017mb 85f 80f
11:50am 3.5ft 6s 4s 11 13 mph 1017.7mb 85f 78f
10:50am 3.5ft 6s 4s 11 16 mph 1017.7mb 85f 77f
9:50am 4ft 6s 4s 16 20 mph 1017mb 85f 79f
8:50am 3.5ft 6s 4s 11 20 mph 1016.8mb 85f 79f
7:50am 3.5ft 6s 4s 11 13 mph 1016.2mb 85f 83f
6:50am 3.5ft 6s 5s 9 11 mph 1016.4mb 85f 83f
5:50am 3.5ft 5s 4s 11 13 mph 1016.1mb 85f 83f
4:50am 3.5ft 5s 4s 13 18 mph 1015.9mb 85f 83f
3:50am 3.5ft 5s 4s 16 18 mph 1016.1mb 85f 82f
2:50am 3ft 4s 4s 16 20 mph 1016.3mb 85f 79f
1:50am 2.5ft 5s 4s 16 18 mph 1016.3mb 85f 83f
12:50am 2.5ft 4s 4s 13 16 mph 1017mb 85f 83f
Tue 09/01 11:50pm 2.5ft 4s 4s 11 16 mph 1016.7mb 85f 83f
10:50pm 2.5ft 5s 4s 11 13 mph 1016.6mb 85f 83f
9:50pm 2.5ft 4s 4s 11 13 mph 1016.1mb 85f 82f
8:50pm 2.5ft 4s 4s 11 16 mph 1015.4mb 85f 82f
7:50pm 3ft 4s 4s 13 18 mph 1015mb 85f 82f
6:50pm 3ft 4s 4s 16 18 mph 1015.2mb 85f 82f
5:50pm 3.5ft 5s 4s 18 20 mph 1015.5mb 85f 82f
4:50pm 3ft 5s 4s 18 22 mph 1015.8mb 85f 81f
3:50pm 2.5ft 5s 4s 22 25 mph 1015.2mb 85f 80f
2:50pm  -   -   -  18 20 mph 1016.3mb 85f 77f
1:50pm 2.5ft 5s 4s 18 22 mph 1018mb 85f 77f
12:50pm 3ft 5s 4s 4 7 mph 1018.3mb 85f 76f
11:50am 3ft 6s 4s 9 13 mph 1018.4mb 85f 80f
10:50am 2.5ft 5s 4s 13 18 mph 1017.4mb 85f 84f
9:50am 2.5ft 5s 4s 16 20 mph 1016mb 85f 84f
8:50am 3ft 5s 4s 11 13 mph 1016.4mb 85f 84f
7:50am 3ft 6s 4s 7 9 mph 1016.2mb 85f 84f
6:50am 2.5ft 6s 4s 9 11 mph 1015.6mb 85f 83f
5:50am 3ft 5s 4s 9 11 mph 1014.9mb 85f 83f
4:50am 3ft 5s 4s 9 11 mph 1014.8mb 85f 82f
3:50am 3ft 5s 4s 11 13 mph 1015.3mb 85f 83f
2:50am 3ft 5s 4s 13 16 mph 1015.7mb 85f 83f
1:50am 2.5ft 4s 4s 18 20 mph 1016.3mb 85f 83f
12:50am 2.5ft 4s 3s 16 20 mph 1016.4mb 85f 83f
Mon 08/31 11:50pm 2ft 4s 3s 16 18 mph 1016.1mb 85f 83f
10:50pm 1.6ft 4s 3s 13 16 mph 1015.8mb 85f 82f
9:50pm 1.6ft 3s 3s 13 18 mph 1015.7mb 85f 82f
8:50pm 2ft 4s 3s 9 11 mph 1015.1mb 85f 81f
7:50pm 2ft 4s 4s 16 18 mph 1014.5mb 85f 82f
6:50pm 2.5ft 4s 4s 11 13 mph 1015.4mb 85f 80f
5:50pm 2.5ft 4s 3s 11 13 mph 1016.1mb 85f 80f
4:50pm 2.5ft 4s 3s 22 27 mph 1015.4mb 85f 79f